sensor_id;sensor_type;location;lat;lon;timestamp;P1;durP1;ratioP1;P2;durP2;ratioP2
34296;SDS011;20564;42.902;25.336;2023-11-21T00:00:03;3.50;;;0.70;;
34296;SDS011;20564;42.902;25.336;2023-11-21T00:02:36;0.40;;;0.40;;
34296;SDS011;20564;42.902;25.336;2023-11-21T00:05:09;0.47;;;0.43;;
34296;SDS011;20564;42.902;25.336;2023-11-21T00:07:37;2.25;;;1.27;;
34296;SDS011;20564;42.902;25.336;2023-11-21T00:10:05;3.13;;;1.15;;
34296;SDS011;20564;42.902;25.336;2023-11-21T00:12:32;1.85;;;1.02;;
34296;SDS011;20564;42.902;25.336;2023-11-21T00:15:00;0.68;;;0.57;;
34296;SDS011;20564;42.902;25.336;2023-11-21T00:17:28;0.77;;;0.65;;
34296;SDS011;20564;42.902;25.336;2023-11-21T00:19:55;1.00;;;0.63;;
34296;SDS011;20564;42.902;25.336;2023-11-21T00:22:22;2.60;;;1.27;;
34296;SDS011;20564;42.902;25.336;2023-11-21T00:24:49;0.82;;;0.38;;
34296;SDS011;20564;42.902;25.336;2023-11-21T00:27:15;0.85;;;0.57;;
34296;SDS011;20564;42.902;25.336;2023-11-21T00:29:42;0.22;;;0.22;;
34296;SDS011;20564;42.902;25.336;2023-11-21T00:32:09;0.80;;;0.50;;
34296;SDS011;20564;42.902;25.336;2023-11-21T00:34:36;3.35;;;1.45;;
34296;SDS011;20564;42.902;25.336;2023-11-21T00:37:03;0.70;;;0.60;;
34296;SDS011;20564;42.902;25.336;2023-11-21T00:39:30;2.03;;;1.35;;
34296;SDS011;20564;42.902;25.336;2023-11-21T00:41:58;0.00;;;0.00;;
34296;SDS011;20564;42.902;25.336;2023-11-21T00:44:28;0.70;;;0.43;;
34296;SDS011;20564;42.902;25.336;2023-11-21T00:46:55;1.17;;;0.70;;
34296;SDS011;20564;42.902;25.336;2023-11-21T00:49:22;1.10;;;0.63;;
34296;SDS011;20564;42.902;25.336;2023-11-21T00:51:49;3.83;;;1.50;;
34296;SDS011;20564;42.902;25.336;2023-11-21T00:54:16;2.38;;;1.02;;
34296;SDS011;20564;42.902;25.336;2023-11-21T00:56:43;1.15;;;0.85;;
34296;SDS011;20564;42.902;25.336;2023-11-21T00:59:10;1.15;;;0.68;;
34296;SDS011;20564;42.902;25.336;2023-11-21T01:01:37;1.40;;;0.73;;
34296;SDS011;20564;42.902;25.336;2023-11-21T01:04:04;1.42;;;1.08;;
34296;SDS011;20564;42.902;25.336;2023-11-21T01:06:33;0.57;;;0.32;;
34296;SDS011;20564;42.902;25.336;2023-11-21T01:09:00;0.77;;;0.40;;
34296;SDS011;20564;42.902;25.336;2023-11-21T01:11:26;0.88;;;0.45;;
34296;SDS011;20564;42.902;25.336;2023-11-21T01:13:54;0.00;;;0.00;;
34296;SDS011;20564;42.902;25.336;2023-11-21T01:16:21;0.22;;;0.22;;
34296;SDS011;20564;42.902;25.336;2023-11-21T01:18:48;0.95;;;0.45;;
34296;SDS011;20564;42.902;25.336;2023-11-21T01:21:15;0.20;;;0.15;;
34296;SDS011;20564;42.902;25.336;2023-11-21T01:23:42;5.32;;;1.02;;
34296;SDS011;20564;42.902;25.336;2023-11-21T01:26:09;0.35;;;0.30;;
34296;SDS011;20564;42.902;25.336;2023-11-21T01:28:36;0.85;;;0.73;;
34296;SDS011;20564;42.902;25.336;2023-11-21T01:31:03;0.23;;;0.23;;
34296;SDS011;20564;42.902;25.336;2023-11-21T01:33:30;0.70;;;0.63;;
34296;SDS011;20564;42.902;25.336;2023-11-21T01:35:57;4.03;;;1.20;;
34296;SDS011;20564;42.902;25.336;2023-11-21T01:38:25;0.00;;;0.00;;
34296;SDS011;20564;42.902;25.336;2023-11-21T01:40:52;0.10;;;0.10;;
34296;SDS011;20564;42.902;25.336;2023-11-21T01:43:19;0.00;;;0.00;;
34296;SDS011;20564;42.902;25.336;2023-11-21T01:45:46;0.00;;;0.00;;
34296;SDS011;20564;42.902;25.336;2023-11-21T01:48:13;1.27;;;0.22;;
34296;SDS011;20564;42.902;25.336;2023-11-21T01:50:41;2.83;;;1.38;;
34296;SDS011;20564;42.902;25.336;2023-11-21T01:53:08;0.10;;;0.10;;
34296;SDS011;20564;42.902;25.336;2023-11-21T01:55:35;0.00;;;0.00;;
34296;SDS011;20564;42.902;25.336;2023-11-21T01:58:02;0.20;;;0.20;;
34296;SDS011;20564;42.902;25.336;2023-11-21T02:00:29;0.05;;;0.03;;
34296;SDS011;20564;42.902;25.336;2023-11-21T02:05:26;0.40;;;0.40;;
34296;SDS011;20564;42.902;25.336;2023-11-21T02:07:53;0.00;;;0.00;;
34296;SDS011;20564;42.902;25.336;2023-11-21T02:10:20;0.25;;;0.22;;
34296;SDS011;20564;42.902;25.336;2023-11-21T02:12:50;0.85;;;0.43;;
34296;SDS011;20564;42.902;25.336;2023-11-21T02:15:18;0.28;;;0.28;;
34296;SDS011;20564;42.902;25.336;2023-11-21T02:17:50;0.00;;;0.00;;
34296;SDS011;20564;42.902;25.336;2023-11-21T02:20:21;2.38;;;0.85;;
34296;SDS011;20564;42.902;25.336;2023-11-21T02:22:55;0.30;;;0.10;;
34296;SDS011;20564;42.902;25.336;2023-11-21T02:25:28;0.20;;;0.10;;
34296;SDS011;20564;42.902;25.336;2023-11-21T02:27:59;0.00;;;0.00;;
34296;SDS011;20564;42.902;25.336;2023-11-21T02:30:30;0.00;;;0.00;;
34296;SDS011;20564;42.902;25.336;2023-11-21T02:33:00;0.40;;;0.17;;
34296;SDS011;20564;42.902;25.336;2023-11-21T02:35:29;0.00;;;0.00;;
34296;SDS011;20564;42.902;25.336;2023-11-21T02:37:58;0.03;;;0.03;;
34296;SDS011;20564;42.902;25.336;2023-11-21T02:40:25;0.00;;;0.00;;
34296;SDS011;20564;42.902;25.336;2023-11-21T02:42:53;0.98;;;0.38;;
34296;SDS011;20564;42.902;25.336;2023-11-21T02:45:20;0.65;;;0.45;;
34296;SDS011;20564;42.902;25.336;2023-11-21T02:47:48;0.10;;;0.10;;
34296;SDS011;20564;42.902;25.336;2023-11-21T02:50:20;1.38;;;1.27;;
34296;SDS011;20564;42.902;25.336;2023-11-21T02:52:49;1.38;;;0.43;;
34296;SDS011;20564;42.902;25.336;2023-11-21T02:55:16;0.82;;;0.45;;
34296;SDS011;20564;42.902;25.336;2023-11-21T02:57:44;0.00;;;0.00;;
34296;SDS011;20564;42.902;25.336;2023-11-21T03:00:11;0.00;;;0.00;;
34296;SDS011;20564;42.902;25.336;2023-11-21T03:02:40;0.05;;;0.05;;
34296;SDS011;20564;42.902;25.336;2023-11-21T03:05:07;0.00;;;0.00;;
34296;SDS011;20564;42.902;25.336;2023-11-21T03:07:38;1.25;;;0.65;;
34296;SDS011;20564;42.902;25.336;2023-11-21T03:10:07;0.03;;;0.03;;
34296;SDS011;20564;42.902;25.336;2023-11-21T03:12:41;0.00;;;0.00;;
34296;SDS011;20564;42.902;25.336;2023-11-21T03:15:11;0.00;;;0.00;;
34296;SDS011;20564;42.902;25.336;2023-11-21T03:17:37;0.10;;;0.10;;
34296;SDS011;20564;42.902;25.336;2023-11-21T03:20:05;0.32;;;0.17;;
34296;SDS011;20564;42.902;25.336;2023-11-21T03:25:00;0.00;;;0.00;;
34296;SDS011;20564;42.902;25.336;2023-11-21T03:27:27;0.00;;;0.00;;
34296;SDS011;20564;42.902;25.336;2023-11-21T03:29:54;0.38;;;0.38;;
34296;SDS011;20564;42.902;25.336;2023-11-21T03:32:21;0.00;;;0.00;;
34296;SDS011;20564;42.902;25.336;2023-11-21T03:34:57;1.88;;;0.73;;
34296;SDS011;20564;42.902;25.336;2023-11-21T03:37:26;0.00;;;0.00;;
34296;SDS011;20564;42.902;25.336;2023-11-21T03:39:56;0.00;;;0.00;;
34296;SDS011;20564;42.902;25.336;2023-11-21T03:42:23;0.15;;;0.15;;
34296;SDS011;20564;42.902;25.336;2023-11-21T03:44:53;0.70;;;0.35;;
34296;SDS011;20564;42.902;25.336;2023-11-21T03:47:20;0.00;;;0.00;;
34296;SDS011;20564;42.902;25.336;2023-11-21T03:49:47;0.67;;;0.57;;
34296;SDS011;20564;42.902;25.336;2023-11-21T03:52:14;0.93;;;0.85;;
34296;SDS011;20564;42.902;25.336;2023-11-21T03:54:41;0.22;;;0.22;;
34296;SDS011;20564;42.902;25.336;2023-11-21T03:57:09;1.08;;;0.68;;
34296;SDS011;20564;42.902;25.336;2023-11-21T03:59:39;0.00;;;0.00;;
34296;SDS011;20564;42.902;25.336;2023-11-21T04:02:08;0.00;;;0.00;;
34296;SDS011;20564;42.902;25.336;2023-11-21T04:04:35;0.65;;;0.43;;
34296;SDS011;20564;42.902;25.336;2023-11-21T04:07:03;0.00;;;0.00;;
34296;SDS011;20564;42.902;25.336;2023-11-21T04:09:31;0.00;;;0.00;;
34296;SDS011;20564;42.902;25.336;2023-11-21T04:11:57;0.10;;;0.10;;
34296;SDS011;20564;42.902;25.336;2023-11-21T04:14:24;0.03;;;0.03;;
34296;SDS011;20564;42.902;25.336;2023-11-21T04:16:51;0.00;;;0.00;;
34296;SDS011;20564;42.902;25.336;2023-11-21T04:19:18;0.00;;;0.00;;
34296;SDS011;20564;42.902;25.336;2023-11-21T04:21:46;1.67;;;1.02;;
34296;SDS011;20564;42.902;25.336;2023-11-21T04:24:15;0.05;;;0.05;;
34296;SDS011;20564;42.902;25.336;2023-11-21T04:26:43;0.00;;;0.00;;
34296;SDS011;20564;42.902;25.336;2023-11-21T04:31:37;0.00;;;0.00;;
34296;SDS011;20564;42.902;25.336;2023-11-21T04:34:03;0.00;;;0.00;;
34296;SDS011;20564;42.902;25.336;2023-11-21T04:36:31;0.27;;;0.20;;
34296;SDS011;20564;42.902;25.336;2023-11-21T04:38:57;0.00;;;0.00;;
34296;SDS011;20564;42.902;25.336;2023-11-21T04:41:24;0.00;;;0.00;;
34296;SDS011;20564;42.902;25.336;2023-11-21T04:43:52;0.00;;;0.00;;
34296;SDS011;20564;42.902;25.336;2023-11-21T04:46:18;0.00;;;0.00;;
34296;SDS011;20564;42.902;25.336;2023-11-21T04:48:45;0.00;;;0.00;;
34296;SDS011;20564;42.902;25.336;2023-11-21T04:51:13;0.00;;;0.00;;
34296;SDS011;20564;42.902;25.336;2023-11-21T04:53:40;3.30;;;1.45;;
34296;SDS011;20564;42.902;25.336;2023-11-21T04:56:07;0.75;;;0.52;;
34296;SDS011;20564;42.902;25.336;2023-11-21T04:58:34;0.00;;;0.00;;
34296;SDS011;20564;42.902;25.336;2023-11-21T05:01:02;0.10;;;0.10;;
34296;SDS011;20564;42.902;25.336;2023-11-21T05:03:33;0.00;;;0.00;;
34296;SDS011;20564;42.902;25.336;2023-11-21T05:06:01;0.00;;;0.00;;
34296;SDS011;20564;42.902;25.336;2023-11-21T05:08:28;0.00;;;0.00;;
34296;SDS011;20564;42.902;25.336;2023-11-21T05:10:56;0.00;;;0.00;;
34296;SDS011;20564;42.902;25.336;2023-11-21T05:13:23;0.00;;;0.00;;
34296;SDS011;20564;42.902;25.336;2023-11-21T05:15:54;0.30;;;0.28;;
34296;SDS011;20564;42.902;25.336;2023-11-21T05:18:24;0.10;;;0.10;;
34296;SDS011;20564;42.902;25.336;2023-11-21T05:20:56;0.10;;;0.10;;
34296;SDS011;20564;42.902;25.336;2023-11-21T05:23:27;0.43;;;0.10;;
34296;SDS011;20564;42.902;25.336;2023-11-21T05:25:54;0.00;;;0.00;;
34296;SDS011;20564;42.902;25.336;2023-11-21T05:28:22;0.00;;;0.00;;
34296;SDS011;20564;42.902;25.336;2023-11-21T05:30:49;0.00;;;0.00;;
34296;SDS011;20564;42.902;25.336;2023-11-21T05:33:29;0.00;;;0.00;;
34296;SDS011;20564;42.902;25.336;2023-11-21T05:35:56;0.50;;;0.50;;
34296;SDS011;20564;42.902;25.336;2023-11-21T05:38:23;0.57;;;0.32;;
34296;SDS011;20564;42.902;25.336;2023-11-21T05:40:49;0.00;;;0.00;;
34296;SDS011;20564;42.902;25.336;2023-11-21T05:43:17;1.02;;;0.80;;
34296;SDS011;20564;42.902;25.336;2023-11-21T05:45:44;0.05;;;0.05;;
34296;SDS011;20564;42.902;25.336;2023-11-21T05:48:11;1.55;;;0.55;;
34296;SDS011;20564;42.902;25.336;2023-11-21T05:50:39;0.08;;;0.08;;
34296;SDS011;20564;42.902;25.336;2023-11-21T05:53:06;0.52;;;0.22;;
34296;SDS011;20564;42.902;25.336;2023-11-21T05:55:33;1.00;;;0.88;;
34296;SDS011;20564;42.902;25.336;2023-11-21T05:58:00;1.50;;;1.10;;
34296;SDS011;20564;42.902;25.336;2023-11-21T06:00:27;0.00;;;0.00;;
34296;SDS011;20564;42.902;25.336;2023-11-21T06:02:54;4.37;;;1.73;;
34296;SDS011;20564;42.902;25.336;2023-11-21T06:05:23;0.00;;;0.00;;
34296;SDS011;20564;42.902;25.336;2023-11-21T06:07:55;1.58;;;0.60;;
34296;SDS011;20564;42.902;25.336;2023-11-21T06:10:26;3.63;;;0.57;;
34296;SDS011;20564;42.902;25.336;2023-11-21T06:12:54;1.10;;;0.45;;
34296;SDS011;20564;42.902;25.336;2023-11-21T06:15:21;9.85;;;1.52;;
34296;SDS011;20564;42.902;25.336;2023-11-21T06:17:50;0.88;;;0.63;;
34296;SDS011;20564;42.902;25.336;2023-11-21T06:20:20;1.55;;;1.20;;
34296;SDS011;20564;42.902;25.336;2023-11-21T06:22:49;0.20;;;0.20;;
34296;SDS011;20564;42.902;25.336;2023-11-21T06:25:17;2.75;;;1.67;;
34296;SDS011;20564;42.902;25.336;2023-11-21T06:27:45;0.63;;;0.40;;
34296;SDS011;20564;42.902;25.336;2023-11-21T06:30:18;0.70;;;0.70;;
34296;SDS011;20564;42.902;25.336;2023-11-21T06:32:47;1.85;;;1.15;;
34296;SDS011;20564;42.902;25.336;2023-11-21T06:35:14;0.82;;;0.50;;
34296;SDS011;20564;42.902;25.336;2023-11-21T06:37:43;0.40;;;0.40;;
34296;SDS011;20564;42.902;25.336;2023-11-21T06:40:18;1.58;;;1.10;;
34296;SDS011;20564;42.902;25.336;2023-11-21T06:42:47;0.35;;;0.35;;
34296;SDS011;20564;42.902;25.336;2023-11-21T06:45:14;1.55;;;1.45;;
34296;SDS011;20564;42.902;25.336;2023-11-21T06:50:09;6.15;;;2.40;;
34296;SDS011;20564;42.902;25.336;2023-11-21T06:52:36;2.50;;;1.77;;
34296;SDS011;20564;42.902;25.336;2023-11-21T06:55:04;5.95;;;1.92;;
34296;SDS011;20564;42.902;25.336;2023-11-21T06:57:31;1.67;;;1.35;;
34296;SDS011;20564;42.902;25.336;2023-11-21T06:59:58;4.80;;;3.17;;
34296;SDS011;20564;42.902;25.336;2023-11-21T07:02:26;5.13;;;3.35;;
34296;SDS011;20564;42.902;25.336;2023-11-21T07:04:54;4.43;;;2.58;;
34296;SDS011;20564;42.902;25.336;2023-11-21T07:07:22;6.93;;;3.95;;
34296;SDS011;20564;42.902;25.336;2023-11-21T07:09:49;5.13;;;3.67;;
34296;SDS011;20564;42.902;25.336;2023-11-21T07:12:16;3.47;;;2.97;;
34296;SDS011;20564;42.902;25.336;2023-11-21T07:14:43;3.90;;;2.70;;
34296;SDS011;20564;42.902;25.336;2023-11-21T07:19:41;5.90;;;3.55;;
34296;SDS011;20564;42.902;25.336;2023-11-21T07:22:08;7.65;;;3.97;;
34296;SDS011;20564;42.902;25.336;2023-11-21T07:24:35;6.50;;;5.10;;
34296;SDS011;20564;42.902;25.336;2023-11-21T07:27:03;5.43;;;3.15;;
34296;SDS011;20564;42.902;25.336;2023-11-21T07:29:30;4.07;;;2.53;;
34296;SDS011;20564;42.902;25.336;2023-11-21T07:31:58;3.08;;;2.63;;
34296;SDS011;20564;42.902;25.336;2023-11-21T07:34:25;6.93;;;4.43;;
34296;SDS011;20564;42.902;25.336;2023-11-21T07:36:52;7.97;;;3.72;;
34296;SDS011;20564;42.902;25.336;2023-11-21T07:39:19;8.70;;;4.70;;
34296;SDS011;20564;42.902;25.336;2023-11-21T07:41:46;4.10;;;2.87;;
34296;SDS011;20564;42.902;25.336;2023-11-21T07:44:18;4.68;;;2.35;;
34296;SDS011;20564;42.902;25.336;2023-11-21T07:46:47;8.45;;;4.40;;
34296;SDS011;20564;42.902;25.336;2023-11-21T07:49:14;5.18;;;2.85;;
34296;SDS011;20564;42.902;25.336;2023-11-21T07:51:43;5.72;;;3.70;;
34296;SDS011;20564;42.902;25.336;2023-11-21T07:56:37;3.47;;;2.65;;
34296;SDS011;20564;42.902;25.336;2023-11-21T07:59:04;6.03;;;2.80;;
34296;SDS011;20564;42.902;25.336;2023-11-21T08:01:31;2.42;;;2.22;;
34296;SDS011;20564;42.902;25.336;2023-11-21T08:03:59;7.15;;;2.85;;
34296;SDS011;20564;42.902;25.336;2023-11-21T08:06:30;3.45;;;1.88;;
34296;SDS011;20564;42.902;25.336;2023-11-21T08:08:58;3.58;;;1.65;;
34296;SDS011;20564;42.902;25.336;2023-11-21T08:11:25;5.28;;;2.15;;
34296;SDS011;20564;42.902;25.336;2023-11-21T08:13:58;2.35;;;1.67;;
34296;SDS011;20564;42.902;25.336;2023-11-21T08:18:54;5.13;;;2.15;;
34296;SDS011;20564;42.902;25.336;2023-11-21T08:21:21;9.27;;;5.75;;
34296;SDS011;20564;42.902;25.336;2023-11-21T08:23:51;5.70;;;2.95;;
34296;SDS011;20564;42.902;25.336;2023-11-21T08:26:21;3.22;;;2.25;;
34296;SDS011;20564;42.902;25.336;2023-11-21T08:28:49;4.55;;;2.85;;
34296;SDS011;20564;42.902;25.336;2023-11-21T08:31:23;4.80;;;2.72;;
34296;SDS011;20564;42.902;25.336;2023-11-21T08:33:52;7.90;;;4.60;;
34296;SDS011;20564;42.902;25.336;2023-11-21T08:36:22;5.97;;;2.50;;
34296;SDS011;20564;42.902;25.336;2023-11-21T08:38:52;5.63;;;3.13;;
34296;SDS011;20564;42.902;25.336;2023-11-21T08:41:19;2.42;;;1.67;;
34296;SDS011;20564;42.902;25.336;2023-11-21T08:43:52;4.65;;;2.10;;
34296;SDS011;20564;42.902;25.336;2023-11-21T08:46:21;3.38;;;1.48;;
34296;SDS011;20564;42.902;25.336;2023-11-21T08:48:49;3.72;;;1.20;;
34296;SDS011;20564;42.902;25.336;2023-11-21T08:51:19;1.60;;;0.68;;
34296;SDS011;20564;42.902;25.336;2023-11-21T08:53:47;0.20;;;0.20;;
34296;SDS011;20564;42.902;25.336;2023-11-21T08:56:14;1.33;;;0.93;;
34296;SDS011;20564;42.902;25.336;2023-11-21T08:58:41;0.20;;;0.20;;
34296;SDS011;20564;42.902;25.336;2023-11-21T09:01:09;0.60;;;0.30;;
34296;SDS011;20564;42.902;25.336;2023-11-21T09:03:36;0.00;;;0.00;;
34296;SDS011;20564;42.902;25.336;2023-11-21T09:06:04;0.20;;;0.20;;
34296;SDS011;20564;42.902;25.336;2023-11-21T09:11:01;0.13;;;0.13;;
34296;SDS011;20564;42.902;25.336;2023-11-21T09:13:34;0.00;;;0.00;;
34296;SDS011;20564;42.902;25.336;2023-11-21T09:16:01;0.77;;;0.55;;
34296;SDS011;20564;42.902;25.336;2023-11-21T09:18:29;0.00;;;0.00;;
34296;SDS011;20564;42.902;25.336;2023-11-21T09:20:57;0.70;;;0.63;;
34296;SDS011;20564;42.902;25.336;2023-11-21T09:23:27;0.00;;;0.00;;
34296;SDS011;20564;42.902;25.336;2023-11-21T09:25:54;0.17;;;0.17;;
34296;SDS011;20564;42.902;25.336;2023-11-21T09:28:23;0.95;;;0.55;;
34296;SDS011;20564;42.902;25.336;2023-11-21T09:30:50;0.00;;;0.00;;
34296;SDS011;20564;42.902;25.336;2023-11-21T09:33:17;0.87;;;0.43;;
34296;SDS011;20564;42.902;25.336;2023-11-21T09:35:44;0.00;;;0.00;;
34296;SDS011;20564;42.902;25.336;2023-11-21T09:38:12;0.28;;;0.25;;
34296;SDS011;20564;42.902;25.336;2023-11-21T09:40:39;0.45;;;0.22;;
34296;SDS011;20564;42.902;25.336;2023-11-21T09:43:08;4.47;;;2.05;;
34296;SDS011;20564;42.902;25.336;2023-11-21T09:45:54;0.90;;;0.55;;
34296;SDS011;20564;42.902;25.336;2023-11-21T09:48:26;0.35;;;0.20;;
34296;SDS011;20564;42.902;25.336;2023-11-21T09:50:53;0.20;;;0.20;;
34296;SDS011;20564;42.902;25.336;2023-11-21T09:53:21;1.25;;;0.47;;
34296;SDS011;20564;42.902;25.336;2023-11-21T09:55:51;0.00;;;0.00;;
34296;SDS011;20564;42.902;25.336;2023-11-21T09:58:19;0.47;;;0.15;;
34296;SDS011;20564;42.902;25.336;2023-11-21T10:00:49;0.65;;;0.38;;
34296;SDS011;20564;42.902;25.336;2023-11-21T10:03:19;0.38;;;0.30;;
34296;SDS011;20564;42.902;25.336;2023-11-21T10:05:46;0.00;;;0.00;;
34296;SDS011;20564;42.902;25.336;2023-11-21T10:08:17;0.65;;;0.32;;
34296;SDS011;20564;42.902;25.336;2023-11-21T10:10:45;0.40;;;0.20;;
34296;SDS011;20564;42.902;25.336;2023-11-21T10:13:15;0.52;;;0.25;;
34296;SDS011;20564;42.902;25.336;2023-11-21T10:15:49;0.00;;;0.00;;
34296;SDS011;20564;42.902;25.336;2023-11-21T10:18:18;0.05;;;0.05;;
34296;SDS011;20564;42.902;25.336;2023-11-21T10:23:20;3.03;;;0.30;;
34296;SDS011;20564;42.902;25.336;2023-11-21T10:25:50;0.00;;;0.00;;
34296;SDS011;20564;42.902;25.336;2023-11-21T10:28:19;0.55;;;0.30;;
34296;SDS011;20564;42.902;25.336;2023-11-21T10:30:48;0.00;;;0.00;;
34296;SDS011;20564;42.902;25.336;2023-11-21T10:33:15;0.00;;;0.00;;
34296;SDS011;20564;42.902;25.336;2023-11-21T10:38:18;1.17;;;0.70;;
34296;SDS011;20564;42.902;25.336;2023-11-21T10:40:47;0.30;;;0.20;;
34296;SDS011;20564;42.902;25.336;2023-11-21T10:43:16;0.00;;;0.00;;
34296;SDS011;20564;42.902;25.336;2023-11-21T10:45:45;0.93;;;0.47;;
34296;SDS011;20564;42.902;25.336;2023-11-21T10:48:13;0.82;;;0.30;;
34296;SDS011;20564;42.902;25.336;2023-11-21T10:50:45;0.45;;;0.25;;
34296;SDS011;20564;42.902;25.336;2023-11-21T10:53:13;0.10;;;0.10;;
34296;SDS011;20564;42.902;25.336;2023-11-21T10:58:10;2.15;;;1.02;;
34296;SDS011;20564;42.902;25.336;2023-11-21T11:00:41;4.35;;;1.45;;
34296;SDS011;20564;42.902;25.336;2023-11-21T11:03:12;0.98;;;0.25;;
34296;SDS011;20564;42.902;25.336;2023-11-21T11:05:43;0.40;;;0.20;;
34296;SDS011;20564;42.902;25.336;2023-11-21T11:08:25;0.10;;;0.10;;
34296;SDS011;20564;42.902;25.336;2023-11-21T11:10:54;1.27;;;0.73;;
34296;SDS011;20564;42.902;25.336;2023-11-21T11:13:22;0.28;;;0.08;;
34296;SDS011;20564;42.902;25.336;2023-11-21T11:15:51;0.10;;;0.00;;
34296;SDS011;20564;42.902;25.336;2023-11-21T11:18:23;0.80;;;0.40;;
34296;SDS011;20564;42.902;25.336;2023-11-21T11:20:50;0.17;;;0.17;;
34296;SDS011;20564;42.902;25.336;2023-11-21T11:28:58;0.40;;;0.40;;
34296;SDS011;20564;42.902;25.336;2023-11-21T11:34:19;0.20;;;0.20;;
34296;SDS011;20564;42.902;25.336;2023-11-21T11:37:00;0.10;;;0.10;;
34296;SDS011;20564;42.902;25.336;2023-11-21T11:44:47;0.20;;;0.20;;
34296;SDS011;20564;42.902;25.336;2023-11-21T11:47:28;0.03;;;0.00;;
34296;SDS011;20564;42.902;25.336;2023-11-21T11:50:02;0.10;;;0.10;;
34296;SDS011;20564;42.902;25.336;2023-11-21T11:52:49;0.30;;;0.30;;
34296;SDS011;20564;42.902;25.336;2023-11-21T11:55:19;0.22;;;0.08;;
34296;SDS011;20564;42.902;25.336;2023-11-21T11:57:48;1.95;;;1.23;;
34296;SDS011;20564;42.902;25.336;2023-11-21T12:00:23;0.75;;;0.30;;
34296;SDS011;20564;42.902;25.336;2023-11-21T12:03:04;1.30;;;0.30;;
34296;SDS011;20564;42.902;25.336;2023-11-21T12:05:34;0.00;;;0.00;;
34296;SDS011;20564;42.902;25.336;2023-11-21T12:08:06;0.68;;;0.60;;
34296;SDS011;20564;42.902;25.336;2023-11-21T12:10:35;0.75;;;0.43;;
34296;SDS011;20564;42.902;25.336;2023-11-21T12:13:04;0.55;;;0.30;;
34296;SDS011;20564;42.902;25.336;2023-11-21T12:15:37;0.10;;;0.10;;
34296;SDS011;20564;42.902;25.336;2023-11-21T12:18:07;0.45;;;0.25;;
34296;SDS011;20564;42.902;25.336;2023-11-21T12:20:34;0.60;;;0.20;;
34296;SDS011;20564;42.902;25.336;2023-11-21T12:23:09;0.45;;;0.30;;
34296;SDS011;20564;42.902;25.336;2023-11-21T12:25:38;1.13;;;0.57;;
34296;SDS011;20564;42.902;25.336;2023-11-21T12:28:06;0.20;;;0.13;;
34296;SDS011;20564;42.902;25.336;2023-11-21T12:30:34;0.10;;;0.10;;
34296;SDS011;20564;42.902;25.336;2023-11-21T12:33:05;0.38;;;0.22;;
34296;SDS011;20564;42.902;25.336;2023-11-21T12:35:36;0.47;;;0.32;;
34296;SDS011;20564;42.902;25.336;2023-11-21T12:38:04;0.10;;;0.10;;
34296;SDS011;20564;42.902;25.336;2023-11-21T12:40:32;0.15;;;0.10;;
34296;SDS011;20564;42.902;25.336;2023-11-21T12:43:00;0.22;;;0.10;;
34296;SDS011;20564;42.902;25.336;2023-11-21T12:45:28;0.45;;;0.35;;
34296;SDS011;20564;42.902;25.336;2023-11-21T12:48:00;0.10;;;0.10;;
34296;SDS011;20564;42.902;25.336;2023-11-21T12:50:34;0.10;;;0.10;;
34296;SDS011;20564;42.902;25.336;2023-11-21T12:55:32;0.03;;;0.03;;
34296;SDS011;20564;42.902;25.336;2023-11-21T12:58:03;0.80;;;0.57;;
34296;SDS011;20564;42.902;25.336;2023-11-21T13:00:44;1.60;;;0.80;;
34296;SDS011;20564;42.902;25.336;2023-11-21T13:03:13;0.73;;;0.55;;
34296;SDS011;20564;42.902;25.336;2023-11-21T13:05:46;0.30;;;0.30;;
34296;SDS011;20564;42.902;25.336;2023-11-21T13:08:25;0.25;;;0.25;;
34296;SDS011;20564;42.902;25.336;2023-11-21T13:10:53;0.20;;;0.17;;
34296;SDS011;20564;42.902;25.336;2023-11-21T13:13:24;0.55;;;0.38;;
34296;SDS011;20564;42.902;25.336;2023-11-21T13:15:55;0.00;;;0.00;;
34296;SDS011;20564;42.902;25.336;2023-11-21T13:18:24;0.20;;;0.20;;
34296;SDS011;20564;42.902;25.336;2023-11-21T13:21:00;0.20;;;0.20;;
34296;SDS011;20564;42.902;25.336;2023-11-21T13:23:36;0.10;;;0.05;;
34296;SDS011;20564;42.902;25.336;2023-11-21T13:28:33;0.45;;;0.32;;
34296;SDS011;20564;42.902;25.336;2023-11-21T13:31:02;1.38;;;0.80;;
34296;SDS011;20564;42.902;25.336;2023-11-21T13:33:38;0.57;;;0.20;;
34296;SDS011;20564;42.902;25.336;2023-11-21T13:36:07;0.25;;;0.25;;
34296;SDS011;20564;42.902;25.336;2023-11-21T13:38:37;0.00;;;0.00;;
34296;SDS011;20564;42.902;25.336;2023-11-21T13:41:09;0.88;;;0.47;;
34296;SDS011;20564;42.902;25.336;2023-11-21T13:43:39;0.25;;;0.20;;
34296;SDS011;20564;42.902;25.336;2023-11-21T13:46:06;0.28;;;0.20;;
34296;SDS011;20564;42.902;25.336;2023-11-21T13:48:40;12.07;;;0.35;;
34296;SDS011;20564;42.902;25.336;2023-11-21T13:51:09;2.17;;;1.27;;
34296;SDS011;20564;42.902;25.336;2023-11-21T13:53:47;0.35;;;0.28;;
34296;SDS011;20564;42.902;25.336;2023-11-21T13:56:17;2.90;;;0.98;;
34296;SDS011;20564;42.902;25.336;2023-11-21T13:58:52;1.02;;;0.52;;
34296;SDS011;20564;42.902;25.336;2023-11-21T14:01:21;2.78;;;0.88;;
34296;SDS011;20564;42.902;25.336;2023-11-21T14:03:59;0.35;;;0.35;;
34296;SDS011;20564;42.902;25.336;2023-11-21T14:06:52;0.55;;;0.35;;
34296;SDS011;20564;42.902;25.336;2023-11-21T14:09:22;0.22;;;0.22;;
34296;SDS011;20564;42.902;25.336;2023-11-21T14:11:55;2.38;;;0.80;;
34296;SDS011;20564;42.902;25.336;2023-11-21T14:14:26;1.10;;;0.57;;
34296;SDS011;20564;42.902;25.336;2023-11-21T14:19:33;1.52;;;0.88;;
34296;SDS011;20564;42.902;25.336;2023-11-21T14:22:03;2.15;;;0.40;;
34296;SDS011;20564;42.902;25.336;2023-11-21T14:24:31;0.57;;;0.45;;
34296;SDS011;20564;42.902;25.336;2023-11-21T14:26:59;0.88;;;0.88;;
34296;SDS011;20564;42.902;25.336;2023-11-21T14:29:26;1.33;;;0.80;;
34296;SDS011;20564;42.902;25.336;2023-11-21T14:31:58;0.22;;;0.22;;
34296;SDS011;20564;42.902;25.336;2023-11-21T14:34:35;0.55;;;0.50;;
34296;SDS011;20564;42.902;25.336;2023-11-21T14:37:06;2.55;;;0.45;;
34296;SDS011;20564;42.902;25.336;2023-11-21T14:39:34;1.15;;;0.77;;
34296;SDS011;20564;42.902;25.336;2023-11-21T14:42:07;0.50;;;0.50;;
34296;SDS011;20564;42.902;25.336;2023-11-21T14:44:34;4.70;;;2.10;;
34296;SDS011;20564;42.902;25.336;2023-11-21T14:47:06;0.10;;;0.10;;
34296;SDS011;20564;42.902;25.336;2023-11-21T14:49:42;0.40;;;0.40;;
34296;SDS011;20564;42.902;25.336;2023-11-21T14:52:29;19.17;;;0.90;;
34296;SDS011;20564;42.902;25.336;2023-11-21T14:55:02;3.50;;;0.50;;
34296;SDS011;20564;42.902;25.336;2023-11-21T14:57:52;0.28;;;0.28;;
34296;SDS011;20564;42.902;25.336;2023-11-21T15:03:03;3.15;;;0.55;;
34296;SDS011;20564;42.902;25.336;2023-11-21T15:05:31;0.28;;;0.28;;
34296;SDS011;20564;42.902;25.336;2023-11-21T15:08:12;0.08;;;0.08;;
34296;SDS011;20564;42.902;25.336;2023-11-21T15:10:52;0.65;;;0.22;;
34296;SDS011;20564;42.902;25.336;2023-11-21T15:13:21;0.45;;;0.40;;
34296;SDS011;20564;42.902;25.336;2023-11-21T15:15:53;5.40;;;0.85;;
34296;SDS011;20564;42.902;25.336;2023-11-21T15:18:21;1.10;;;0.57;;
34296;SDS011;20564;42.902;25.336;2023-11-21T15:20:49;2.08;;;0.93;;
34296;SDS011;20564;42.902;25.336;2023-11-21T15:23:18;0.10;;;0.10;;
34296;SDS011;20564;42.902;25.336;2023-11-21T15:26:02;1.00;;;0.30;;
34296;SDS011;20564;42.902;25.336;2023-11-21T15:28:31;0.75;;;0.17;;
34296;SDS011;20564;42.902;25.336;2023-11-21T15:31:00;1.85;;;0.63;;
34296;SDS011;20564;42.902;25.336;2023-11-21T15:33:29;4.53;;;0.95;;
34296;SDS011;20564;42.902;25.336;2023-11-21T15:35:59;2.35;;;0.98;;